createdAt,value
2022-09-29T00:01:10.948Z,17.60
2022-09-29T00:03:38.443Z,17.52
2022-09-29T00:06:13.205Z,17.30
2022-09-29T00:08:40.764Z,17.51
2022-09-29T00:11:13.802Z,17.52
2022-09-29T00:13:41.497Z,17.15
2022-09-29T00:16:09.459Z,17.47
2022-09-29T00:18:37.047Z,17.83
2022-09-29T00:21:07.621Z,17.68
2022-09-29T00:23:36.045Z,17.68
2022-09-29T00:26:09.884Z,17.43
2022-09-29T00:28:39.212Z,17.47
2022-09-29T00:31:08.671Z,17.93
2022-09-29T00:33:38.210Z,17.97
2022-09-29T00:36:10.345Z,17.99
2022-09-29T00:38:38.444Z,17.34
2022-09-29T00:41:07.209Z,17.48
2022-09-29T00:43:51.382Z,18.26
2022-09-29T00:46:41.853Z,18.19
2022-09-29T00:49:37.271Z,18.11
2022-09-29T00:52:10.445Z,18.14
2022-09-29T00:54:43.846Z,18.10
2022-09-29T00:57:15.624Z,18.25
2022-09-29T00:59:51.032Z,18.36
2022-09-29T01:02:20.363Z,17.71
2022-09-29T01:04:52.961Z,17.99
2022-09-29T01:07:23.024Z,18.30
2022-09-29T01:09:53.985Z,18.23
2022-09-29T01:12:22.194Z,18.48
2022-09-29T01:14:50.049Z,18.19
2022-09-29T01:17:17.683Z,18.39
2022-09-29T01:20:07.189Z,18.42
2022-09-29T01:22:56.067Z,18.55
2022-09-29T01:25:43.943Z,18.36
2022-09-29T01:28:27.831Z,18.39
2022-09-29T01:30:58.001Z,17.81
2022-09-29T01:33:31.254Z,17.71
2022-09-29T01:36:29.417Z,17.92
2022-09-29T01:39:23.071Z,17.59
2022-09-29T01:41:56.675Z,17.83
2022-09-29T01:44:42.683Z,18.16
2022-09-29T01:47:28.082Z,18.08
2022-09-29T01:50:04.063Z,18.24
2022-09-29T01:52:38.952Z,18.42
2022-09-29T01:55:11.843Z,18.29
2022-09-29T01:58:02.466Z,18.14
2022-09-29T02:00:41.593Z,17.83
2022-09-29T02:03:17.277Z,17.96
2022-09-29T02:05:55.137Z,18.21
2022-09-29T02:08:32.724Z,18.28
2022-09-29T02:11:06.102Z,18.23
2022-09-29T02:13:55.732Z,18.02
2022-09-29T02:16:30.961Z,18.18
2022-09-29T02:19:01.671Z,18.32
2022-09-29T02:21:29.167Z,18.23
2022-09-29T02:23:57.491Z,17.90
2022-09-29T02:26:28.613Z,17.88
2022-09-29T02:28:56.289Z,17.92
2022-09-29T02:31:23.992Z,17.85
2022-09-29T02:33:51.493Z,17.75
2022-09-29T02:36:40.870Z,17.53
2022-09-29T02:39:38.872Z,17.46
2022-09-29T02:42:29.738Z,17.55
2022-09-29T02:45:12.148Z,17.79
2022-09-29T02:47:59.742Z,17.89
2022-09-29T02:50:45.592Z,17.77
2022-09-29T02:53:27.547Z,17.89
2022-09-29T02:55:59.142Z,17.69
2022-09-29T02:58:30.413Z,17.71
2022-09-29T03:00:59.871Z,17.86
2022-09-29T03:03:27.479Z,17.73
2022-09-29T03:05:55.182Z,17.83
2022-09-29T03:08:22.592Z,16.95
2022-09-29T03:10:50.050Z,16.54
2022-09-29T03:13:17.496Z,16.23
2022-09-29T03:15:44.907Z,16.20
2022-09-29T03:18:12.337Z,16.18
2022-09-29T03:20:39.794Z,16.52
2022-09-29T03:23:07.385Z,16.08
2022-09-29T03:25:34.991Z,16.80
2022-09-29T03:28:02.519Z,17.12
2022-09-29T03:30:29.971Z,16.89
2022-09-29T03:32:57.425Z,16.86
2022-09-29T03:35:24.954Z,16.21
2022-09-29T03:37:53.435Z,16.05
2022-09-29T03:40:21.066Z,16.60
2022-09-29T03:42:48.731Z,16.67
2022-09-29T03:45:16.383Z,16.46
2022-09-29T03:47:43.999Z,15.52
2022-09-29T03:50:13.200Z,15.93
2022-09-29T03:52:40.794Z,16.47
2022-09-29T03:55:10.864Z,16.72
2022-09-29T03:57:38.480Z,16.82
2022-09-29T04:00:06.558Z,16.74
2022-09-29T04:02:36.270Z,16.60
2022-09-29T04:05:04.393Z,16.75
2022-09-29T04:07:32.405Z,16.79
2022-09-29T04:10:00.031Z,16.52
2022-09-29T04:12:27.758Z,16.60
2022-09-29T04:14:55.428Z,16.66
2022-09-29T04:17:23.105Z,16.85
2022-09-29T04:19:52.763Z,16.88
2022-09-29T04:22:21.711Z,16.76
2022-09-29T04:24:49.492Z,16.75
2022-09-29T04:27:17.865Z,16.79
2022-09-29T04:29:45.551Z,16.85
2022-09-29T04:32:13.636Z,16.88
2022-09-29T04:34:44.355Z,17.02
2022-09-29T04:37:17.682Z,17.18
2022-09-29T04:39:54.220Z,16.66
2022-09-29T04:42:31.202Z,15.53
2022-09-29T04:44:59.215Z,15.42
2022-09-29T04:47:41.162Z,15.90
2022-09-29T04:50:21.049Z,16.67
2022-09-29T04:52:55.452Z,16.02
2022-09-29T04:55:33.998Z,16.29
2022-09-29T04:58:16.507Z,16.85
2022-09-29T05:01:00.913Z,17.24
2022-09-29T05:03:55.969Z,17.46
2022-09-29T05:06:56.893Z,17.63
2022-09-29T05:09:53.996Z,17.59
2022-09-29T05:12:38.357Z,17.55
2022-09-29T05:15:56.013Z,17.41
2022-09-29T05:18:23.780Z,17.49
2022-09-29T05:21:10.550Z,17.85
2022-09-29T05:23:40.032Z,18.02
2022-09-29T05:26:13.733Z,17.89
2022-09-29T05:28:46.223Z,17.94
2022-09-29T05:31:25.343Z,18.25
2022-09-29T05:33:57.649Z,18.23
2022-09-29T05:36:32.671Z,18.27
2022-09-29T05:39:00.187Z,18.45
2022-09-29T05:41:27.791Z,18.49
2022-09-29T05:43:56.158Z,18.53
2022-09-29T05:46:23.699Z,18.36
2022-09-29T05:48:51.559Z,18.28
2022-09-29T05:51:24.759Z,18.24
2022-09-29T05:53:52.456Z,17.82
2022-09-29T05:56:24.989Z,17.62
2022-09-29T05:58:53.604Z,17.65
2022-09-29T06:01:23.622Z,17.71
2022-09-29T06:03:53.059Z,17.78
2022-09-29T06:06:23.349Z,17.89
2022-09-29T06:08:51.371Z,18.15
2022-09-29T06:11:32.080Z,18.52
2022-09-29T06:14:03.035Z,18.71
2022-09-29T06:16:34.286Z,19.24
2022-09-29T06:19:07.762Z,19.18
2022-09-29T06:21:37.907Z,19.25
2022-09-29T06:24:18.524Z,19.47
2022-09-29T06:27:10.825Z,19.58
2022-09-29T06:29:40.831Z,19.97
2022-09-29T06:32:10.983Z,19.86
2022-09-29T06:35:05.595Z,19.94
2022-09-29T06:37:46.808Z,20.09
2022-09-29T06:40:23.500Z,20.56
2022-09-29T06:42:51.430Z,20.89
2022-09-29T06:45:22.190Z,20.83
2022-09-29T06:48:14.504Z,21.17
2022-09-29T06:51:35.752Z,21.14
2022-09-29T06:54:41.914Z,21.14
2022-09-29T06:57:41.948Z,21.43
2022-09-29T07:00:38.996Z,21.09
2022-09-29T07:03:34.599Z,20.35
2022-09-29T07:06:21.986Z,20.50
2022-09-29T07:09:00.115Z,20.61
2022-09-29T07:11:48.416Z,20.37
2022-09-29T07:14:36.838Z,20.81
2022-09-29T07:17:17.619Z,20.93
2022-09-29T07:19:55.832Z,21.28
2022-09-29T07:22:23.778Z,21.33
2022-09-29T07:24:53.766Z,21.27
2022-09-29T07:27:26.681Z,21.72
2022-09-29T07:30:40.150Z,21.58
2022-09-29T07:33:57.080Z,22.05
2022-09-29T07:37:11.732Z,23.99
2022-09-29T07:44:25.747Z,25.84
2022-09-29T07:47:42.120Z,23.36
2022-09-29T07:51:59.194Z,23.30
2022-09-29T07:53:41.084Z,23.00
2022-09-29T07:56:34.637Z,22.51
2022-09-29T07:59:03.642Z,22.99
2022-09-29T08:01:34.419Z,23.50
2022-09-29T08:04:13.068Z,23.93
2022-09-29T08:06:58.336Z,24.00
2022-09-29T08:10:14.334Z,23.74
2022-09-29T08:13:03.561Z,24.26
2022-09-29T08:15:48.741Z,24.51
2022-09-29T08:19:03.279Z,27.57
2022-09-29T08:21:44.679Z,27.65
2022-09-29T08:28:22.382Z,29.45
2022-09-29T08:31:21.417Z,30.16
2022-09-29T08:33:56.766Z,30.51
2022-09-29T08:36:29.473Z,29.36
2022-09-29T10:10:09.742Z,26.28
2022-09-29T10:22:42.096Z,26.26
2022-09-29T10:25:27.347Z,24.59
2022-09-29T10:39:28.509Z,24.97
2022-09-29T10:42:42.534Z,24.89
2022-09-29T10:45:38.820Z,25.61
2022-09-29T10:50:13.909Z,24.50
2022-09-29T10:55:44.599Z,25.50
2022-09-29T11:04:45.751Z,25.47
2022-09-29T11:06:59.854Z,25.39
2022-09-29T11:09:56.758Z,24.97
2022-09-29T11:15:57.929Z,26.29
2022-09-29T11:18:58.267Z,26.32
2022-09-29T11:22:01.695Z,26.90
2022-09-29T11:24:54.214Z,25.94
2022-09-29T11:31:26.602Z,25.58
2022-09-29T11:34:17.242Z,25.59
2022-09-29T11:37:15.577Z,26.13
2022-09-29T11:40:36.490Z,26.94
2022-09-29T11:44:17.833Z,26.82
2022-09-29T11:47:44.501Z,26.77
2022-09-29T11:51:02.786Z,26.55
2022-09-29T11:54:07.253Z,26.94
2022-09-29T11:57:39.018Z,26.02
2022-09-29T12:01:37.893Z,25.27
2022-09-29T12:04:55.460Z,25.30
2022-09-29T12:07:55.739Z,25.97
2022-09-29T12:12:05.184Z,26.14
2022-09-29T12:14:41.173Z,26.06
2022-09-29T12:17:15.168Z,25.97
2022-09-29T12:19:50.512Z,24.81
2022-09-29T12:22:21.349Z,25.06
2022-09-29T12:24:55.402Z,25.09
2022-09-29T12:27:32.176Z,25.54
2022-09-29T12:30:07.116Z,24.02
2022-09-29T12:32:36.655Z,24.05
2022-09-29T12:35:23.683Z,25.07
2022-09-29T12:38:01.388Z,24.98
2022-09-29T12:41:00.341Z,24.09
2022-09-29T12:43:34.951Z,24.36
2022-09-29T12:46:47.317Z,24.43
2022-09-29T12:49:28.474Z,24.88
2022-09-29T12:52:12.876Z,24.50
2022-09-29T12:54:47.324Z,25.64
2022-09-29T12:57:28.285Z,25.21
2022-09-29T13:00:14.158Z,25.44
2022-09-29T13:03:02.608Z,26.28
2022-09-29T13:06:06.165Z,25.26
2022-09-29T13:08:40.437Z,25.08
2022-09-29T13:11:41.677Z,24.14
2022-09-29T13:14:24.046Z,24.43
2022-09-29T13:16:51.667Z,24.53
2022-09-29T13:19:52.905Z,24.62
2022-09-29T13:23:00.740Z,24.50
2022-09-29T13:25:28.761Z,23.96
2022-09-29T13:28:00.711Z,24.23
2022-09-29T13:30:38.952Z,25.00
2022-09-29T13:33:10.981Z,25.12
2022-09-29T13:35:44.969Z,24.86
2022-09-29T13:38:26.956Z,24.86
2022-09-29T13:41:17.277Z,25.22
2022-09-29T13:43:50.788Z,25.26
2022-09-29T13:46:32.656Z,25.63
2022-09-29T13:49:12.496Z,24.81
2022-09-29T13:51:57.901Z,25.69
2022-09-29T13:54:30.045Z,25.69
2022-09-29T13:57:16.713Z,25.40
2022-09-29T13:59:57.810Z,25.52
2022-09-29T14:02:56.371Z,25.99
2022-09-29T14:05:50.480Z,26.92
2022-09-29T14:08:29.689Z,26.27
2022-09-29T14:11:16.251Z,25.66
2022-09-29T14:13:55.638Z,24.93
2022-09-29T14:17:09.870Z,25.37
2022-09-29T14:20:02.353Z,25.22
2022-09-29T14:22:44.919Z,25.33
2022-09-29T14:25:12.608Z,25.69
2022-09-29T14:27:45.102Z,25.27
2022-09-29T14:30:20.002Z,25.38
2022-09-29T14:33:17.295Z,25.13
2022-09-29T14:35:49.995Z,25.54
2022-09-29T14:38:34.916Z,25.85
2022-09-29T14:41:05.921Z,24.49
2022-09-29T14:43:41.160Z,24.20
2022-09-29T14:46:38.107Z,24.63
2022-09-29T14:49:45.900Z,25.22
2022-09-29T14:52:38.092Z,24.88
2022-09-29T14:55:11.265Z,24.91
2022-09-29T14:57:38.709Z,24.59
2022-09-29T15:00:21.421Z,24.67
2022-09-29T15:03:23.651Z,25.16
2022-09-29T15:06:17.695Z,25.13
2022-09-29T15:09:02.207Z,25.27
2022-09-29T15:11:43.333Z,24.82
2022-09-29T15:14:29.945Z,24.45
2022-09-29T15:17:06.741Z,24.90
2022-09-29T15:19:55.911Z,24.18
2022-09-29T15:22:45.480Z,24.18
2022-09-29T15:25:19.793Z,24.17
2022-09-29T15:27:53.347Z,24.16
2022-09-29T15:30:23.094Z,23.56
2022-09-29T15:32:52.028Z,23.58
2022-09-29T15:35:25.770Z,23.92
2022-09-29T15:38:15.441Z,23.71
2022-09-29T15:40:52.519Z,23.63
2022-09-29T15:43:23.036Z,24.05
2022-09-29T15:45:58.086Z,24.18
2022-09-29T15:48:28.360Z,24.01
2022-09-29T15:50:56.498Z,22.76
2022-09-29T15:53:29.016Z,22.51
2022-09-29T15:55:56.743Z,23.18
2022-09-29T15:58:26.995Z,22.93
2022-09-29T16:01:06.376Z,22.63
2022-09-29T16:03:46.787Z,22.12
2022-09-29T16:06:27.766Z,22.40
2022-09-29T16:09:08.304Z,22.44
2022-09-29T16:11:39.286Z,22.37
2022-09-29T16:14:15.203Z,22.38
2022-09-29T16:16:47.449Z,22.50
2022-09-29T16:19:20.685Z,22.60
2022-09-29T16:21:54.888Z,22.62
2022-09-29T16:24:24.569Z,22.63
2022-09-29T16:26:54.706Z,22.83
2022-09-29T16:29:22.321Z,22.77
2022-09-29T16:31:51.489Z,22.97
2022-09-29T16:34:21.830Z,23.08
2022-09-29T16:36:55.512Z,22.96
2022-09-29T16:39:29.070Z,22.95
2022-09-29T16:41:59.077Z,22.19
2022-09-29T16:44:43.715Z,22.05
2022-09-29T16:47:21.085Z,21.73
2022-09-29T16:49:52.503Z,21.86
2022-09-29T16:52:28.726Z,21.99
2022-09-29T16:55:22.180Z,22.08
2022-09-29T16:57:58.604Z,21.92
2022-09-29T17:00:26.426Z,21.79
2022-09-29T17:02:58.137Z,21.52
2022-09-29T17:05:28.147Z,21.61
2022-09-29T17:08:03.297Z,21.33
2022-09-29T17:10:32.430Z,21.70
2022-09-29T17:13:00.200Z,21.78
2022-09-29T17:15:27.922Z,21.76
2022-09-29T17:17:58.648Z,22.08
2022-09-29T17:20:30.275Z,22.20
2022-09-29T17:23:00.126Z,22.01
2022-09-29T17:25:28.705Z,22.18
2022-09-29T17:28:12.313Z,21.94
2022-09-29T17:30:42.482Z,21.90
2022-09-29T17:33:12.753Z,21.81
2022-09-29T17:35:43.026Z,21.68
2022-09-29T17:38:12.436Z,21.80
2022-09-29T17:40:56.409Z,21.65
2022-09-29T17:43:24.607Z,21.59
2022-09-29T17:45:54.811Z,22.26
2022-09-29T17:48:22.637Z,22.19
2022-09-29T17:50:51.269Z,22.24
2022-09-29T17:53:19.175Z,22.37
2022-09-29T17:55:51.654Z,22.11
2022-09-29T17:58:19.826Z,22.26
2022-09-29T18:00:49.362Z,22.07
2022-09-29T18:03:18.931Z,22.08
2022-09-29T18:09:07.858Z,22.28
2022-09-29T18:14:16.621Z,22.33
2022-09-29T18:33:27.234Z,21.64
2022-09-29T19:06:29.475Z,19.40
2022-09-29T19:18:24.390Z,21.18
2022-09-29T20:42:50.917Z,19.12
2022-09-29T20:46:27.207Z,19.52
2022-09-29T23:36:16.771Z,18.73
2022-09-29T23:42:34.235Z,18.66
2022-09-29T23:53:03.982Z,18.44
2022-09-29T23:56:53.414Z,18.53
